sensor_id;sensor_type;location;lat;lon;timestamp;P1;durP1;ratioP1;P2;durP2;ratioP2
77586;SDS011;66744;49.716;17.158;2024-01-06T00:02:16;19.10;;;11.82;;
77586;SDS011;66744;49.716;17.158;2024-01-06T00:05:18;22.55;;;13.00;;
77586;SDS011;66744;49.716;17.158;2024-01-06T00:08:19;27.20;;;14.25;;
77586;SDS011;66744;49.716;17.158;2024-01-06T00:11:26;22.83;;;13.25;;
77586;SDS011;66744;49.716;17.158;2024-01-06T00:14:28;21.13;;;12.63;;
77586;SDS011;66744;49.716;17.158;2024-01-06T00:17:31;25.98;;;14.20;;
77586;SDS011;66744;49.716;17.158;2024-01-06T00:20:34;25.85;;;14.65;;
77586;SDS011;66744;49.716;17.158;2024-01-06T00:23:35;26.02;;;14.02;;
77586;SDS011;66744;49.716;17.158;2024-01-06T00:26:37;24.63;;;13.18;;
77586;SDS011;66744;49.716;17.158;2024-01-06T00:29:43;22.83;;;12.00;;
77586;SDS011;66744;49.716;17.158;2024-01-06T00:32:45;21.52;;;12.90;;
77586;SDS011;66744;49.716;17.158;2024-01-06T00:35:47;22.63;;;12.88;;
77586;SDS011;66744;49.716;17.158;2024-01-06T00:38:52;24.75;;;14.30;;
77586;SDS011;66744;49.716;17.158;2024-01-06T00:41:54;22.45;;;11.77;;
77586;SDS011;66744;49.716;17.158;2024-01-06T00:44:56;24.20;;;12.10;;
77586;SDS011;66744;49.716;17.158;2024-01-06T00:47:59;21.83;;;13.00;;
77586;SDS011;66744;49.716;17.158;2024-01-06T00:51:04;19.00;;;10.38;;
77586;SDS011;66744;49.716;17.158;2024-01-06T00:54:07;20.25;;;12.57;;
77586;SDS011;66744;49.716;17.158;2024-01-06T00:57:08;26.60;;;13.20;;
77586;SDS011;66744;49.716;17.158;2024-01-06T01:00:10;21.67;;;12.25;;
77586;SDS011;66744;49.716;17.158;2024-01-06T01:03:15;22.02;;;13.00;;
77586;SDS011;66744;49.716;17.158;2024-01-06T01:06:21;23.58;;;11.75;;
77586;SDS011;66744;49.716;17.158;2024-01-06T01:09:22;22.50;;;11.30;;
77586;SDS011;66744;49.716;17.158;2024-01-06T01:12:26;20.70;;;11.80;;
77586;SDS011;66744;49.716;17.158;2024-01-06T01:15:31;19.58;;;10.98;;
77586;SDS011;66744;49.716;17.158;2024-01-06T01:18:33;15.45;;;9.27;;
77586;SDS011;66744;49.716;17.158;2024-01-06T01:21:36;17.30;;;11.00;;
77586;SDS011;66744;49.716;17.158;2024-01-06T01:24:43;19.55;;;10.95;;
77586;SDS011;66744;49.716;17.158;2024-01-06T01:27:45;19.17;;;10.05;;
77586;SDS011;66744;49.716;17.158;2024-01-06T01:30:50;24.98;;;11.57;;
77586;SDS011;66744;49.716;17.158;2024-01-06T01:33:54;22.23;;;11.60;;
77586;SDS011;66744;49.716;17.158;2024-01-06T01:36:59;19.20;;;9.73;;
77586;SDS011;66744;49.716;17.158;2024-01-06T01:40:00;15.00;;;8.82;;
77586;SDS011;66744;49.716;17.158;2024-01-06T01:43:05;16.67;;;9.43;;
77586;SDS011;66744;49.716;17.158;2024-01-06T01:46:08;19.63;;;10.70;;
77586;SDS011;66744;49.716;17.158;2024-01-06T01:49:10;15.00;;;9.20;;
77586;SDS011;66744;49.716;17.158;2024-01-06T01:52:14;17.80;;;10.05;;
77586;SDS011;66744;49.716;17.158;2024-01-06T01:55:16;18.25;;;9.77;;
77586;SDS011;66744;49.716;17.158;2024-01-06T01:58:19;19.27;;;9.43;;
77586;SDS011;66744;49.716;17.158;2024-01-06T02:05:12;17.35;;;9.00;;
77586;SDS011;66744;49.716;17.158;2024-01-06T02:08:18;15.65;;;8.77;;
77586;SDS011;66744;49.716;17.158;2024-01-06T02:11:20;19.63;;;11.65;;
77586;SDS011;66744;49.716;17.158;2024-01-06T02:14:24;16.17;;;8.80;;
77586;SDS011;66744;49.716;17.158;2024-01-06T02:17:28;18.38;;;8.52;;
77586;SDS011;66744;49.716;17.158;2024-01-06T02:20:37;17.67;;;9.63;;
77586;SDS011;66744;49.716;17.158;2024-01-06T02:23:43;20.08;;;10.23;;
77586;SDS011;66744;49.716;17.158;2024-01-06T02:26:46;17.92;;;10.77;;
77586;SDS011;66744;49.716;17.158;2024-01-06T02:29:53;17.80;;;10.68;;
77586;SDS011;66744;49.716;17.158;2024-01-06T02:32:57;17.40;;;8.57;;
77586;SDS011;66744;49.716;17.158;2024-01-06T02:35:59;21.38;;;10.18;;
77586;SDS011;66744;49.716;17.158;2024-01-06T02:39:00;17.90;;;10.32;;
77586;SDS011;66744;49.716;17.158;2024-01-06T02:42:06;15.13;;;9.65;;
77586;SDS011;66744;49.716;17.158;2024-01-06T02:45:10;18.73;;;9.93;;
77586;SDS011;66744;49.716;17.158;2024-01-06T02:48:12;18.23;;;9.30;;
77586;SDS011;66744;49.716;17.158;2024-01-06T02:51:14;20.77;;;10.82;;
77586;SDS011;66744;49.716;17.158;2024-01-06T02:54:17;18.70;;;10.82;;
77586;SDS011;66744;49.716;17.158;2024-01-06T02:57:20;13.68;;;8.52;;
77586;SDS011;66744;49.716;17.158;2024-01-06T03:00:23;15.95;;;9.40;;
77586;SDS011;66744;49.716;17.158;2024-01-06T03:03:28;15.25;;;9.13;;
77586;SDS011;66744;49.716;17.158;2024-01-06T03:06:32;18.23;;;8.80;;
77586;SDS011;66744;49.716;17.158;2024-01-06T03:09:34;16.23;;;8.57;;
77586;SDS011;66744;49.716;17.158;2024-01-06T03:12:35;15.07;;;8.98;;
77586;SDS011;66744;49.716;17.158;2024-01-06T03:15:38;16.85;;;8.82;;
77586;SDS011;66744;49.716;17.158;2024-01-06T03:18:39;14.77;;;8.20;;
77586;SDS011;66744;49.716;17.158;2024-01-06T03:21:41;14.15;;;8.88;;
77586;SDS011;66744;49.716;17.158;2024-01-06T03:24:44;14.48;;;8.18;;
77586;SDS011;66744;49.716;17.158;2024-01-06T03:27:46;14.90;;;8.82;;
77586;SDS011;66744;49.716;17.158;2024-01-06T03:30:48;15.25;;;8.32;;
77586;SDS011;66744;49.716;17.158;2024-01-06T03:33:51;13.00;;;7.65;;
77586;SDS011;66744;49.716;17.158;2024-01-06T03:36:55;12.05;;;7.68;;
77586;SDS011;66744;49.716;17.158;2024-01-06T03:39:57;11.98;;;8.35;;
77586;SDS011;66744;49.716;17.158;2024-01-06T03:42:58;17.70;;;9.18;;
77586;SDS011;66744;49.716;17.158;2024-01-06T03:46:05;13.98;;;8.77;;
77586;SDS011;66744;49.716;17.158;2024-01-06T03:49:07;15.85;;;8.70;;
77586;SDS011;66744;49.716;17.158;2024-01-06T03:52:12;12.88;;;8.88;;
77586;SDS011;66744;49.716;17.158;2024-01-06T03:55:15;15.65;;;9.65;;
77586;SDS011;66744;49.716;17.158;2024-01-06T03:58:17;19.85;;;9.07;;
77586;SDS011;66744;49.716;17.158;2024-01-06T04:01:19;14.88;;;8.57;;
77586;SDS011;66744;49.716;17.158;2024-01-06T04:04:22;13.57;;;7.40;;
77586;SDS011;66744;49.716;17.158;2024-01-06T04:07:23;14.60;;;7.00;;
77586;SDS011;66744;49.716;17.158;2024-01-06T04:10:30;14.95;;;8.38;;
77586;SDS011;66744;49.716;17.158;2024-01-06T04:13:31;13.05;;;7.45;;
77586;SDS011;66744;49.716;17.158;2024-01-06T04:16:32;12.15;;;6.13;;
77586;SDS011;66744;49.716;17.158;2024-01-06T04:19:36;14.57;;;8.20;;
77586;SDS011;66744;49.716;17.158;2024-01-06T04:22:37;14.25;;;7.90;;
77586;SDS011;66744;49.716;17.158;2024-01-06T04:25:40;14.80;;;7.38;;
77586;SDS011;66744;49.716;17.158;2024-01-06T04:28:42;13.48;;;7.15;;
77586;SDS011;66744;49.716;17.158;2024-01-06T04:31:44;12.00;;;6.70;;
77586;SDS011;66744;49.716;17.158;2024-01-06T04:34:48;11.98;;;7.68;;
77586;SDS011;66744;49.716;17.158;2024-01-06T04:37:50;10.55;;;6.65;;
77586;SDS011;66744;49.716;17.158;2024-01-06T04:40:57;12.10;;;7.38;;
77586;SDS011;66744;49.716;17.158;2024-01-06T04:43:59;9.95;;;7.55;;
77586;SDS011;66744;49.716;17.158;2024-01-06T04:47:00;14.48;;;7.13;;
77586;SDS011;66744;49.716;17.158;2024-01-06T04:50:04;14.80;;;7.43;;
77586;SDS011;66744;49.716;17.158;2024-01-06T04:53:15;10.70;;;6.45;;
77586;SDS011;66744;49.716;17.158;2024-01-06T04:56:23;12.35;;;7.80;;
77586;SDS011;66744;49.716;17.158;2024-01-06T04:59:25;16.27;;;8.13;;
77586;SDS011;66744;49.716;17.158;2024-01-06T05:02:27;11.63;;;6.78;;
77586;SDS011;66744;49.716;17.158;2024-01-06T05:05:31;12.48;;;7.65;;
77586;SDS011;66744;49.716;17.158;2024-01-06T05:08:34;12.18;;;6.80;;
77586;SDS011;66744;49.716;17.158;2024-01-06T05:11:40;12.40;;;7.07;;
77586;SDS011;66744;49.716;17.158;2024-01-06T05:14:44;10.60;;;6.75;;
77586;SDS011;66744;49.716;17.158;2024-01-06T05:17:45;13.15;;;7.05;;
77586;SDS011;66744;49.716;17.158;2024-01-06T05:20:46;13.77;;;8.07;;
77586;SDS011;66744;49.716;17.158;2024-01-06T05:23:48;13.60;;;6.70;;
77586;SDS011;66744;49.716;17.158;2024-01-06T05:26:50;15.48;;;7.70;;
77586;SDS011;66744;49.716;17.158;2024-01-06T05:29:52;13.60;;;7.57;;
77586;SDS011;66744;49.716;17.158;2024-01-06T05:32:54;14.18;;;7.22;;
77586;SDS011;66744;49.716;17.158;2024-01-06T05:35:59;14.65;;;8.27;;
77586;SDS011;66744;49.716;17.158;2024-01-06T05:39:01;13.65;;;7.32;;
77586;SDS011;66744;49.716;17.158;2024-01-06T05:42:06;15.98;;;7.20;;
77586;SDS011;66744;49.716;17.158;2024-01-06T05:45:10;12.80;;;7.40;;
77586;SDS011;66744;49.716;17.158;2024-01-06T05:48:12;15.48;;;7.90;;
77586;SDS011;66744;49.716;17.158;2024-01-06T05:51:15;12.98;;;7.47;;
77586;SDS011;66744;49.716;17.158;2024-01-06T05:54:16;13.65;;;7.95;;
77586;SDS011;66744;49.716;17.158;2024-01-06T05:57:18;12.98;;;8.13;;
77586;SDS011;66744;49.716;17.158;2024-01-06T06:00:22;15.88;;;8.13;;
77586;SDS011;66744;49.716;17.158;2024-01-06T06:03:24;15.63;;;8.07;;
77586;SDS011;66744;49.716;17.158;2024-01-06T06:06:27;14.48;;;7.72;;
77586;SDS011;66744;49.716;17.158;2024-01-06T06:09:28;12.20;;;7.18;;
77586;SDS011;66744;49.716;17.158;2024-01-06T06:12:32;12.60;;;8.40;;
77586;SDS011;66744;49.716;17.158;2024-01-06T06:15:34;14.05;;;7.53;;
77586;SDS011;66744;49.716;17.158;2024-01-06T06:18:35;12.73;;;7.70;;
77586;SDS011;66744;49.716;17.158;2024-01-06T06:21:38;14.70;;;8.77;;
77586;SDS011;66744;49.716;17.158;2024-01-06T06:24:40;15.23;;;8.10;;
77586;SDS011;66744;49.716;17.158;2024-01-06T06:27:42;12.82;;;7.32;;
77586;SDS011;66744;49.716;17.158;2024-01-06T06:30:45;18.05;;;10.93;;
77586;SDS011;66744;49.716;17.158;2024-01-06T06:33:46;17.77;;;9.25;;
77586;SDS011;66744;49.716;17.158;2024-01-06T06:36:50;16.17;;;9.75;;
77586;SDS011;66744;49.716;17.158;2024-01-06T06:39:54;15.00;;;8.77;;
77586;SDS011;66744;49.716;17.158;2024-01-06T06:42:56;15.18;;;7.97;;
77586;SDS011;66744;49.716;17.158;2024-01-06T06:45:58;11.77;;;8.43;;
77586;SDS011;66744;49.716;17.158;2024-01-06T06:48:59;15.75;;;7.85;;
77586;SDS011;66744;49.716;17.158;2024-01-06T06:52:01;15.63;;;8.18;;
77586;SDS011;66744;49.716;17.158;2024-01-06T06:55:05;11.73;;;7.10;;
77586;SDS011;66744;49.716;17.158;2024-01-06T06:58:10;13.45;;;7.75;;
77586;SDS011;66744;49.716;17.158;2024-01-06T07:01:13;15.60;;;7.97;;
77586;SDS011;66744;49.716;17.158;2024-01-06T07:04:17;15.60;;;8.98;;
77586;SDS011;66744;49.716;17.158;2024-01-06T07:07:19;17.50;;;9.27;;
77586;SDS011;66744;49.716;17.158;2024-01-06T07:10:24;16.90;;;9.88;;
77586;SDS011;66744;49.716;17.158;2024-01-06T07:13:26;15.77;;;9.52;;
77586;SDS011;66744;49.716;17.158;2024-01-06T07:16:27;16.55;;;8.77;;
77586;SDS011;66744;49.716;17.158;2024-01-06T07:19:31;16.77;;;10.48;;
77586;SDS011;66744;49.716;17.158;2024-01-06T07:22:34;17.98;;;9.57;;
77586;SDS011;66744;49.716;17.158;2024-01-06T07:25:35;25.20;;;13.07;;
77586;SDS011;66744;49.716;17.158;2024-01-06T07:28:41;19.48;;;11.98;;
77586;SDS011;66744;49.716;17.158;2024-01-06T07:31:43;20.75;;;12.25;;
77586;SDS011;66744;49.716;17.158;2024-01-06T07:34:45;23.48;;;12.18;;
77586;SDS011;66744;49.716;17.158;2024-01-06T07:37:49;20.70;;;11.25;;
77586;SDS011;66744;49.716;17.158;2024-01-06T07:40:50;19.42;;;11.48;;
77586;SDS011;66744;49.716;17.158;2024-01-06T07:43:52;17.30;;;10.23;;
77586;SDS011;66744;49.716;17.158;2024-01-06T07:46:59;14.90;;;9.13;;
77586;SDS011;66744;49.716;17.158;2024-01-06T07:50:00;16.08;;;9.18;;
77586;SDS011;66744;49.716;17.158;2024-01-06T07:53:08;21.42;;;11.60;;
77586;SDS011;66744;49.716;17.158;2024-01-06T07:56:09;19.98;;;11.13;;
77586;SDS011;66744;49.716;17.158;2024-01-06T07:59:11;18.25;;;10.43;;
77586;SDS011;66744;49.716;17.158;2024-01-06T08:02:12;28.40;;;14.63;;
77586;SDS011;66744;49.716;17.158;2024-01-06T08:05:14;22.80;;;12.93;;
77586;SDS011;66744;49.716;17.158;2024-01-06T08:08:20;20.08;;;11.65;;
77586;SDS011;66744;49.716;17.158;2024-01-06T08:11:22;19.77;;;10.00;;
77586;SDS011;66744;49.716;17.158;2024-01-06T08:14:25;15.45;;;8.35;;
77586;SDS011;66744;49.716;17.158;2024-01-06T08:17:30;13.65;;;7.53;;
77586;SDS011;66744;49.716;17.158;2024-01-06T08:20:32;12.38;;;7.53;;
77586;SDS011;66744;49.716;17.158;2024-01-06T08:23:40;12.32;;;7.93;;
77586;SDS011;66744;49.716;17.158;2024-01-06T08:26:47;14.23;;;7.32;;
77586;SDS011;66744;49.716;17.158;2024-01-06T08:29:53;15.38;;;7.95;;
77586;SDS011;66744;49.716;17.158;2024-01-06T08:32:54;13.77;;;8.32;;
77586;SDS011;66744;49.716;17.158;2024-01-06T08:35:58;14.85;;;8.82;;
77586;SDS011;66744;49.716;17.158;2024-01-06T08:39:03;12.63;;;8.02;;
77586;SDS011;66744;49.716;17.158;2024-01-06T08:42:05;13.85;;;8.45;;
77586;SDS011;66744;49.716;17.158;2024-01-06T08:45:07;14.73;;;8.73;;
77586;SDS011;66744;49.716;17.158;2024-01-06T08:48:09;16.58;;;9.10;;
77586;SDS011;66744;49.716;17.158;2024-01-06T08:51:15;14.32;;;7.97;;
77586;SDS011;66744;49.716;17.158;2024-01-06T08:54:19;14.52;;;9.35;;
77586;SDS011;66744;49.716;17.158;2024-01-06T08:57:24;15.10;;;8.23;;
77586;SDS011;66744;49.716;17.158;2024-01-06T09:00:27;15.80;;;10.00;;
77586;SDS011;66744;49.716;17.158;2024-01-06T09:03:29;13.18;;;8.60;;
77586;SDS011;66744;49.716;17.158;2024-01-06T09:06:33;13.98;;;8.90;;
77586;SDS011;66744;49.716;17.158;2024-01-06T09:09:36;17.17;;;9.10;;
77586;SDS011;66744;49.716;17.158;2024-01-06T09:12:38;14.15;;;8.43;;
77586;SDS011;66744;49.716;17.158;2024-01-06T09:15:40;16.90;;;9.25;;
77586;SDS011;66744;49.716;17.158;2024-01-06T09:18:43;13.20;;;8.82;;
77586;SDS011;66744;49.716;17.158;2024-01-06T09:21:46;13.27;;;9.05;;
77586;SDS011;66744;49.716;17.158;2024-01-06T09:24:47;13.57;;;8.73;;
77586;SDS011;66744;49.716;17.158;2024-01-06T09:27:52;14.38;;;7.47;;
77586;SDS011;66744;49.716;17.158;2024-01-06T09:30:53;16.42;;;8.52;;
77586;SDS011;66744;49.716;17.158;2024-01-06T09:33:59;13.27;;;8.07;;
77586;SDS011;66744;49.716;17.158;2024-01-06T09:37:05;13.65;;;8.32;;
77586;SDS011;66744;49.716;17.158;2024-01-06T09:40:08;13.23;;;9.13;;
77586;SDS011;66744;49.716;17.158;2024-01-06T09:43:14;14.63;;;7.68;;
77586;SDS011;66744;49.716;17.158;2024-01-06T09:46:21;14.00;;;8.48;;
77586;SDS011;66744;49.716;17.158;2024-01-06T09:49:34;12.40;;;7.72;;
77586;SDS011;66744;49.716;17.158;2024-01-06T09:52:39;12.65;;;7.80;;
77586;SDS011;66744;49.716;17.158;2024-01-06T09:55:45;13.50;;;8.00;;
77586;SDS011;66744;49.716;17.158;2024-01-06T09:58:47;14.25;;;8.23;;
77586;SDS011;66744;49.716;17.158;2024-01-06T10:01:50;13.43;;;8.57;;
77586;SDS011;66744;49.716;17.158;2024-01-06T10:04:57;12.38;;;7.70;;
77586;SDS011;66744;49.716;17.158;2024-01-06T10:08:00;15.52;;;8.80;;
77586;SDS011;66744;49.716;17.158;2024-01-06T10:11:06;17.40;;;8.07;;
77586;SDS011;66744;49.716;17.158;2024-01-06T10:14:12;13.32;;;7.85;;
77586;SDS011;66744;49.716;17.158;2024-01-06T10:17:15;16.17;;;8.77;;
77586;SDS011;66744;49.716;17.158;2024-01-06T10:20:27;15.77;;;8.77;;
77586;SDS011;66744;49.716;17.158;2024-01-06T10:23:29;15.43;;;8.52;;
77586;SDS011;66744;49.716;17.158;2024-01-06T10:26:31;18.45;;;8.25;;
77586;SDS011;66744;49.716;17.158;2024-01-06T10:29:33;12.63;;;8.82;;
77586;SDS011;66744;49.716;17.158;2024-01-06T10:32:35;13.80;;;8.48;;
77586;SDS011;66744;49.716;17.158;2024-01-06T10:35:37;17.30;;;9.48;;
77586;SDS011;66744;49.716;17.158;2024-01-06T10:38:42;20.27;;;10.20;;
77586;SDS011;66744;49.716;17.158;2024-01-06T10:41:47;19.45;;;9.82;;
77586;SDS011;66744;49.716;17.158;2024-01-06T10:44:50;14.23;;;9.07;;
77586;SDS011;66744;49.716;17.158;2024-01-06T10:47:51;16.67;;;9.70;;
77586;SDS011;66744;49.716;17.158;2024-01-06T10:50:55;20.38;;;10.40;;
77586;SDS011;66744;49.716;17.158;2024-01-06T10:54:01;16.35;;;9.73;;
77586;SDS011;66744;49.716;17.158;2024-01-06T10:57:04;17.40;;;9.52;;
77586;SDS011;66744;49.716;17.158;2024-01-06T11:00:11;18.83;;;8.52;;
77586;SDS011;66744;49.716;17.158;2024-01-06T11:03:13;15.45;;;8.88;;
77586;SDS011;66744;49.716;17.158;2024-01-06T11:06:24;13.18;;;9.20;;
77586;SDS011;66744;49.716;17.158;2024-01-06T11:09:31;16.52;;;9.88;;
77586;SDS011;66744;49.716;17.158;2024-01-06T11:12:37;18.67;;;10.70;;
77586;SDS011;66744;49.716;17.158;2024-01-06T11:18:46;18.55;;;11.20;;
77586;SDS011;66744;49.716;17.158;2024-01-06T11:21:50;21.80;;;12.25;;
77586;SDS011;66744;49.716;17.158;2024-01-06T11:24:53;19.48;;;10.80;;
77586;SDS011;66744;49.716;17.158;2024-01-06T11:27:57;19.00;;;11.15;;
77586;SDS011;66744;49.716;17.158;2024-01-06T11:31:08;16.13;;;10.45;;
77586;SDS011;66744;49.716;17.158;2024-01-06T11:34:15;20.95;;;11.88;;
77586;SDS011;66744;49.716;17.158;2024-01-06T11:37:23;27.58;;;14.07;;
77586;SDS011;66744;49.716;17.158;2024-01-06T11:40:31;24.08;;;13.02;;
77586;SDS011;66744;49.716;17.158;2024-01-06T11:43:37;25.90;;;14.57;;
77586;SDS011;66744;49.716;17.158;2024-01-06T11:46:43;23.35;;;12.93;;
77586;SDS011;66744;49.716;17.158;2024-01-06T11:49:48;19.90;;;10.82;;
77586;SDS011;66744;49.716;17.158;2024-01-06T11:52:58;20.67;;;10.82;;
77586;SDS011;66744;49.716;17.158;2024-01-06T11:56:04;17.65;;;11.57;;
77586;SDS011;66744;49.716;17.158;2024-01-06T11:59:07;21.40;;;12.15;;
77586;SDS011;66744;49.716;17.158;2024-01-06T12:02:14;17.05;;;10.98;;
77586;SDS011;66744;49.716;17.158;2024-01-06T12:05:19;16.40;;;10.90;;
77586;SDS011;66744;49.716;17.158;2024-01-06T12:08:21;21.42;;;11.82;;
77586;SDS011;66744;49.716;17.158;2024-01-06T12:11:23;15.30;;;10.05;;
77586;SDS011;66744;49.716;17.158;2024-01-06T12:14:26;17.05;;;10.35;;
77586;SDS011;66744;49.716;17.158;2024-01-06T12:17:31;16.42;;;9.48;;
77586;SDS011;66744;49.716;17.158;2024-01-06T12:20:33;15.88;;;8.45;;
77586;SDS011;66744;49.716;17.158;2024-01-06T12:23:37;19.27;;;9.57;;
77586;SDS011;66744;49.716;17.158;2024-01-06T12:26:40;13.32;;;8.48;;
77586;SDS011;66744;49.716;17.158;2024-01-06T12:29:48;14.80;;;8.93;;
77586;SDS011;66744;49.716;17.158;2024-01-06T12:32:50;15.88;;;8.38;;
77586;SDS011;66744;49.716;17.158;2024-01-06T12:35:54;15.20;;;9.10;;
77586;SDS011;66744;49.716;17.158;2024-01-06T12:38:57;14.32;;;8.65;;
77586;SDS011;66744;49.716;17.158;2024-01-06T12:42:08;15.55;;;8.38;;
77586;SDS011;66744;49.716;17.158;2024-01-06T12:45:11;11.43;;;7.22;;
77586;SDS011;66744;49.716;17.158;2024-01-06T12:48:13;12.23;;;7.13;;
77586;SDS011;66744;49.716;17.158;2024-01-06T12:51:15;12.50;;;8.15;;
77586;SDS011;66744;49.716;17.158;2024-01-06T12:54:18;14.23;;;8.52;;
77586;SDS011;66744;49.716;17.158;2024-01-06T12:57:20;12.55;;;7.93;;
77586;SDS011;66744;49.716;17.158;2024-01-06T13:00:27;34.00;;;17.10;;
77586;SDS011;66744;49.716;17.158;2024-01-06T13:03:30;23.83;;;11.55;;
77586;SDS011;66744;49.716;17.158;2024-01-06T13:06:32;16.88;;;10.10;;
77586;SDS011;66744;49.716;17.158;2024-01-06T13:09:36;14.10;;;9.00;;
77586;SDS011;66744;49.716;17.158;2024-01-06T13:12:38;17.25;;;9.57;;
77586;SDS011;66744;49.716;17.158;2024-01-06T13:15:39;19.42;;;11.10;;
77586;SDS011;66744;49.716;17.158;2024-01-06T13:18:40;18.52;;;10.60;;
77586;SDS011;66744;49.716;17.158;2024-01-06T13:21:45;19.45;;;10.80;;
77586;SDS011;66744;49.716;17.158;2024-01-06T13:24:48;17.58;;;10.80;;
77586;SDS011;66744;49.716;17.158;2024-01-06T13:27:52;18.40;;;11.13;;
77586;SDS011;66744;49.716;17.158;2024-01-06T13:30:54;21.75;;;10.98;;
77586;SDS011;66744;49.716;17.158;2024-01-06T13:34:02;16.15;;;9.57;;
77586;SDS011;66744;49.716;17.158;2024-01-06T13:37:07;17.27;;;10.48;;
77586;SDS011;66744;49.716;17.158;2024-01-06T13:40:12;33.28;;;15.50;;
77586;SDS011;66744;49.716;17.158;2024-01-06T13:43:14;39.63;;;19.77;;
77586;SDS011;66744;49.716;17.158;2024-01-06T13:46:20;24.88;;;13.07;;
77586;SDS011;66744;49.716;17.158;2024-01-06T13:49:24;21.77;;;12.10;;
77586;SDS011;66744;49.716;17.158;2024-01-06T13:52:27;19.58;;;12.55;;
77586;SDS011;66744;49.716;17.158;2024-01-06T13:55:31;16.67;;;9.70;;
77586;SDS011;66744;49.716;17.158;2024-01-06T13:58:33;18.67;;;10.43;;
77586;SDS011;66744;49.716;17.158;2024-01-06T14:01:41;19.02;;;9.77;;
77586;SDS011;66744;49.716;17.158;2024-01-06T14:04:43;16.80;;;10.40;;
77586;SDS011;66744;49.716;17.158;2024-01-06T14:07:47;15.30;;;9.02;;
77586;SDS011;66744;49.716;17.158;2024-01-06T14:10:52;13.35;;;8.07;;
77586;SDS011;66744;49.716;17.158;2024-01-06T14:13:53;11.13;;;7.22;;
77586;SDS011;66744;49.716;17.158;2024-01-06T14:16:58;13.57;;;6.97;;
77586;SDS011;66744;49.716;17.158;2024-01-06T14:20:05;13.00;;;6.82;;
77586;SDS011;66744;49.716;17.158;2024-01-06T14:23:10;9.75;;;6.25;;
77586;SDS011;66744;49.716;17.158;2024-01-06T14:26:11;8.85;;;5.47;;
77586;SDS011;66744;49.716;17.158;2024-01-06T14:29:13;9.85;;;5.75;;
77586;SDS011;66744;49.716;17.158;2024-01-06T14:32:18;13.73;;;6.68;;
77586;SDS011;66744;49.716;17.158;2024-01-06T14:35:20;14.85;;;6.18;;
77586;SDS011;66744;49.716;17.158;2024-01-06T14:38:22;11.20;;;6.20;;
77586;SDS011;66744;49.716;17.158;2024-01-06T14:41:24;12.07;;;6.40;;
77586;SDS011;66744;49.716;17.158;2024-01-06T14:44:26;11.55;;;5.63;;
77586;SDS011;66744;49.716;17.158;2024-01-06T14:47:29;64.38;;;22.98;;
77586;SDS011;66744;49.716;17.158;2024-01-06T14:50:33;61.50;;;28.60;;
77586;SDS011;66744;49.716;17.158;2024-01-06T14:53:38;25.15;;;12.35;;
77586;SDS011;66744;49.716;17.158;2024-01-06T14:56:40;18.38;;;11.85;;
77586;SDS011;66744;49.716;17.158;2024-01-06T14:59:42;14.77;;;9.30;;
77586;SDS011;66744;49.716;17.158;2024-01-06T15:02:46;14.80;;;7.03;;
77586;SDS011;66744;49.716;17.158;2024-01-06T15:05:48;15.80;;;7.38;;
77586;SDS011;66744;49.716;17.158;2024-01-06T15:08:50;12.43;;;6.97;;
77586;SDS011;66744;49.716;17.158;2024-01-06T15:11:52;16.73;;;7.55;;
77586;SDS011;66744;49.716;17.158;2024-01-06T15:14:57;18.50;;;7.60;;
77586;SDS011;66744;49.716;17.158;2024-01-06T15:18:00;21.65;;;10.45;;
77586;SDS011;66744;49.716;17.158;2024-01-06T15:21:02;23.25;;;11.88;;
77586;SDS011;66744;49.716;17.158;2024-01-06T15:24:07;25.83;;;13.35;;
77586;SDS011;66744;49.716;17.158;2024-01-06T15:27:10;22.77;;;11.57;;
77586;SDS011;66744;49.716;17.158;2024-01-06T15:30:12;17.17;;;9.70;;
77586;SDS011;66744;49.716;17.158;2024-01-06T15:33:14;21.08;;;11.20;;
77586;SDS011;66744;49.716;17.158;2024-01-06T15:36:21;20.67;;;12.13;;
77586;SDS011;66744;49.716;17.158;2024-01-06T15:39:27;25.35;;;13.15;;
77586;SDS011;66744;49.716;17.158;2024-01-06T15:42:28;27.02;;;15.75;;
77586;SDS011;66744;49.716;17.158;2024-01-06T15:45:30;31.67;;;17.48;;
77586;SDS011;66744;49.716;17.158;2024-01-06T15:48:32;30.88;;;17.83;;
77586;SDS011;66744;49.716;17.158;2024-01-06T15:51:37;26.38;;;14.30;;
77586;SDS011;66744;49.716;17.158;2024-01-06T15:54:39;33.35;;;17.73;;
77586;SDS011;66744;49.716;17.158;2024-01-06T15:57:44;34.50;;;18.83;;
77586;SDS011;66744;49.716;17.158;2024-01-06T16:00:48;35.22;;;17.08;;
77586;SDS011;66744;49.716;17.158;2024-01-06T16:03:50;48.13;;;23.13;;
77586;SDS011;66744;49.716;17.158;2024-01-06T16:06:52;36.13;;;18.55;;
77586;SDS011;66744;49.716;17.158;2024-01-06T16:09:54;57.67;;;25.67;;
77586;SDS011;66744;49.716;17.158;2024-01-06T16:12:59;62.33;;;27.05;;
77586;SDS011;66744;49.716;17.158;2024-01-06T16:16:01;34.20;;;17.98;;
77586;SDS011;66744;49.716;17.158;2024-01-06T16:19:04;36.83;;;20.35;;
77586;SDS011;66744;49.716;17.158;2024-01-06T16:22:06;33.65;;;18.27;;
77586;SDS011;66744;49.716;17.158;2024-01-06T16:25:13;38.10;;;21.73;;
77586;SDS011;66744;49.716;17.158;2024-01-06T16:28:16;34.08;;;19.00;;
77586;SDS011;66744;49.716;17.158;2024-01-06T16:31:18;37.00;;;19.50;;
77586;SDS011;66744;49.716;17.158;2024-01-06T16:34:20;31.00;;;16.95;;
77586;SDS011;66744;49.716;17.158;2024-01-06T16:37:22;28.73;;;18.15;;
77586;SDS011;66744;49.716;17.158;2024-01-06T16:40:26;34.10;;;19.70;;
77586;SDS011;66744;49.716;17.158;2024-01-06T16:43:35;32.40;;;19.23;;
77586;SDS011;66744;49.716;17.158;2024-01-06T16:46:43;27.75;;;15.55;;
77586;SDS011;66744;49.716;17.158;2024-01-06T16:49:45;26.75;;;16.27;;
77586;SDS011;66744;49.716;17.158;2024-01-06T16:52:50;22.85;;;14.45;;
77586;SDS011;66744;49.716;17.158;2024-01-06T16:55:55;19.92;;;12.10;;
77586;SDS011;66744;49.716;17.158;2024-01-06T16:59:00;22.48;;;12.45;;
77586;SDS011;66744;49.716;17.158;2024-01-06T17:02:11;26.98;;;14.50;;
77586;SDS011;66744;49.716;17.158;2024-01-06T17:05:15;26.65;;;13.63;;
77586;SDS011;66744;49.716;17.158;2024-01-06T17:08:17;26.00;;;14.48;;
77586;SDS011;66744;49.716;17.158;2024-01-06T17:11:23;34.78;;;16.30;;
77586;SDS011;66744;49.716;17.158;2024-01-06T17:14:26;22.67;;;11.45;;
77586;SDS011;66744;49.716;17.158;2024-01-06T17:17:29;21.35;;;10.77;;
77586;SDS011;66744;49.716;17.158;2024-01-06T17:20:31;17.13;;;9.05;;
77586;SDS011;66744;49.716;17.158;2024-01-06T17:23:39;11.43;;;6.47;;
77586;SDS011;66744;49.716;17.158;2024-01-06T17:26:43;13.88;;;7.32;;
77586;SDS011;66744;49.716;17.158;2024-01-06T17:29:45;11.75;;;5.65;;
77586;SDS011;66744;49.716;17.158;2024-01-06T17:32:47;14.07;;;8.18;;
77586;SDS011;66744;49.716;17.158;2024-01-06T17:35:49;9.38;;;5.70;;
77586;SDS011;66744;49.716;17.158;2024-01-06T17:38:51;8.02;;;5.50;;
77586;SDS011;66744;49.716;17.158;2024-01-06T17:41:53;8.38;;;5.38;;
77586;SDS011;66744;49.716;17.158;2024-01-06T17:44:56;9.18;;;5.55;;
77586;SDS011;66744;49.716;17.158;2024-01-06T17:48:00;8.18;;;4.68;;
77586;SDS011;66744;49.716;17.158;2024-01-06T17:51:04;12.13;;;6.03;;
77586;SDS011;66744;49.716;17.158;2024-01-06T17:54:09;8.95;;;5.40;;